<?xml version="1.0" encoding="UTF-8"?>
<gpx version="1.1" creator="https://www.youtrack.es" xsi:schemaLocation="http://www.topografix.com/GPX/1/1 http://www.topografix.com/GPX/1/1/gpx.xsd http://www.garmin.com/xmlschemas/GpxExtensions/v3 http://www.garmin.com/xmlschemas/GpxExtensionsv3.xsd http://www.garmin.com/xmlschemas/TrackPointExtension/v1 http://www.garmin.com/xmlschemas/TrackPointExtensionv1.xsd" xmlns:gpxtpx="http://www.garmin.com/xmlschemas/TrackPointExtension/v1" xmlns:gpxx="http://www.garmin.com/xmlschemas/GpxExtensions/v3" xmlns:xsi="http://www.w3.org/2001/XMLSchema-instance">
  <metadata>
    <link href="https://www.youtrack.es">
      <text>YouTrack.es</text>
    </link>
    <time>2026-05-10T11:52:11Z</time>
  </metadata>
  <trk>
    <src>https://www.youtrack.es</src>
    <link href="https://www.youtrack.es/ruta/3190-marcos-codesal">
      <text>YouTrack.es</text>
    </link>
    <trkseg>
      <trkpt lat="43.0186770" lon="-7.5670450">
        <ele>462.2</ele>
        <time>2018-12-05T15:06:47Z</time>
      </trkpt>
      <trkpt lat="43.0186440" lon="-7.5671260">
        <ele>461.2</ele>
        <time>2018-12-05T15:06:49Z</time>
      </trkpt>
      <trkpt lat="43.0186150" lon="-7.5672370">
        <ele>460.8</ele>
        <time>2018-12-05T15:06:52Z</time>
      </trkpt>
      <trkpt lat="43.0185690" lon="-7.5672400">
        <ele>461.2</ele>
        <time>2018-12-05T15:06:55Z</time>
      </trkpt>
      <trkpt lat="43.0183840" lon="-7.5670620">
        <ele>461.6</ele>
        <time>2018-12-05T15:07:01Z</time>
      </trkpt>
      <trkpt lat="43.0181700" lon="-7.5669080">
        <ele>461.4</ele>
        <time>2018-12-05T15:07:07Z</time>
      </trkpt>
      <trkpt lat="43.0179200" lon="-7.5667710">
        <ele>460.6</ele>
        <time>2018-12-05T15:07:13Z</time>
      </trkpt>
      <trkpt lat="43.0177940" lon="-7.5666780">
        <ele>460.4</ele>
        <time>2018-12-05T15:07:17Z</time>
      </trkpt>
      <trkpt lat="43.0176550" lon="-7.5665570">
        <ele>460.2</ele>
        <time>2018-12-05T15:07:23Z</time>
      </trkpt>
      <trkpt lat="43.0175800" lon="-7.5665060">
        <ele>460.2</ele>
        <time>2018-12-05T15:07:25Z</time>
      </trkpt>
      <trkpt lat="43.0174790" lon="-7.5664840">
        <ele>460.2</ele>
        <time>2018-12-05T15:07:26Z</time>
      </trkpt>
      <trkpt lat="43.0174010" lon="-7.5663380">
        <ele>459.8</ele>
        <time>2018-12-05T15:07:30Z</time>
      </trkpt>
      <trkpt lat="43.0173170" lon="-7.5662630">
        <ele>459.6</ele>
        <time>2018-12-05T15:07:32Z</time>
      </trkpt>
      <trkpt lat="43.0172070" lon="-7.5661990">
        <ele>459.0</ele>
        <time>2018-12-05T15:07:34Z</time>
      </trkpt>
      <trkpt lat="43.0171050" lon="-7.5661160">
        <ele>457.6</ele>
        <time>2018-12-05T15:07:36Z</time>
      </trkpt>
      <trkpt lat="43.0168870" lon="-7.5659590">
        <ele>456.6</ele>
        <time>2018-12-05T15:07:41Z</time>
      </trkpt>
      <trkpt lat="43.0166710" lon="-7.5657440">
        <ele>456.4</ele>
        <time>2018-12-05T15:07:47Z</time>
      </trkpt>
      <trkpt lat="43.0164900" lon="-7.5655770">
        <ele>455.8</ele>
        <time>2018-12-05T15:07:53Z</time>
      </trkpt>
      <trkpt lat="43.0163470" lon="-7.5655150">
        <ele>455.4</ele>
        <time>2018-12-05T15:07:57Z</time>
      </trkpt>
      <trkpt lat="43.0161790" lon="-7.5654600">
        <ele>455.2</ele>
        <time>2018-12-05T15:08:03Z</time>
      </trkpt>
      <trkpt lat="43.0160320" lon="-7.5652710">
        <ele>455.0</ele>
        <time>2018-12-05T15:08:09Z</time>
      </trkpt>
      <trkpt lat="43.0159540" lon="-7.5651370">
        <ele>454.4</ele>
        <time>2018-12-05T15:08:12Z</time>
      </trkpt>
      <trkpt lat="43.0158310" lon="-7.5649700">
        <ele>453.6</ele>
        <time>2018-12-05T15:08:16Z</time>
      </trkpt>
      <trkpt lat="43.0158030" lon="-7.5649260">
        <ele>453.4</ele>
        <time>2018-12-05T15:08:17Z</time>
      </trkpt>
      <trkpt lat="43.0156650" lon="-7.5647440">
        <ele>452.2</ele>
        <time>2018-12-05T15:08:22Z</time>
      </trkpt>
      <trkpt lat="43.0155450" lon="-7.5645010">
        <ele>452.4</ele>
        <time>2018-12-05T15:08:28Z</time>
      </trkpt>
      <trkpt lat="43.0153330" lon="-7.5643010">
        <ele>451.4</ele>
        <time>2018-12-05T15:08:34Z</time>
      </trkpt>
      <trkpt lat="43.0153000" lon="-7.5642790">
        <ele>451.4</ele>
        <time>2018-12-05T15:08:36Z</time>
      </trkpt>
      <trkpt lat="43.0152380" lon="-7.5642990">
        <ele>451.2</ele>
        <time>2018-12-05T15:08:38Z</time>
      </trkpt>
      <trkpt lat="43.0150570" lon="-7.5643540">
        <ele>451.0</ele>
        <time>2018-12-05T15:08:44Z</time>
      </trkpt>
      <trkpt lat="43.0149700" lon="-7.5643840">
        <ele>450.8</ele>
        <time>2018-12-05T15:08:46Z</time>
      </trkpt>
      <trkpt lat="43.0148790" lon="-7.5644410">
        <ele>449.8</ele>
        <time>2018-12-05T15:08:48Z</time>
      </trkpt>
      <trkpt lat="43.0148440" lon="-7.5645010">
        <ele>449.4</ele>
        <time>2018-12-05T15:08:49Z</time>
      </trkpt>
      <trkpt lat="43.0147320" lon="-7.5646820">
        <ele>448.6</ele>
        <time>2018-12-05T15:08:52Z</time>
      </trkpt>
      <trkpt lat="43.0146110" lon="-7.5648680">
        <ele>448.0</ele>
        <time>2018-12-05T15:08:55Z</time>
      </trkpt>
      <trkpt lat="43.0144740" lon="-7.5650360">
        <ele>447.4</ele>
        <time>2018-12-05T15:08:58Z</time>
      </trkpt>
      <trkpt lat="43.0143720" lon="-7.5651210">
        <ele>447.0</ele>
        <time>2018-12-05T15:09:00Z</time>
      </trkpt>
      <trkpt lat="43.0142730" lon="-7.5650930">
        <ele>446.4</ele>
        <time>2018-12-05T15:09:02Z</time>
      </trkpt>
      <trkpt lat="43.0142040" lon="-7.5649590">
        <ele>445.4</ele>
        <time>2018-12-05T15:09:05Z</time>
      </trkpt>
      <trkpt lat="43.0140780" lon="-7.5646920">
        <ele>444.8</ele>
        <time>2018-12-05T15:09:10Z</time>
      </trkpt>
      <trkpt lat="43.0139040" lon="-7.5644420">
        <ele>446.0</ele>
        <time>2018-12-05T15:09:16Z</time>
      </trkpt>
      <trkpt lat="43.0137970" lon="-7.5643260">
        <ele>446.2</ele>
        <time>2018-12-05T15:09:21Z</time>
      </trkpt>
      <trkpt lat="43.0137570" lon="-7.5642340">
        <ele>445.8</ele>
        <time>2018-12-05T15:09:25Z</time>
      </trkpt>
      <trkpt lat="43.0136980" lon="-7.5639950">
        <ele>445.6</ele>
        <time>2018-12-05T15:09:31Z</time>
      </trkpt>
      <trkpt lat="43.0135160" lon="-7.5637780">
        <ele>446.6</ele>
        <time>2018-12-05T15:09:37Z</time>
      </trkpt>
      <trkpt lat="43.0133720" lon="-7.5635830">
        <ele>447.4</ele>
        <time>2018-12-05T15:09:43Z</time>
      </trkpt>
      <trkpt lat="43.0133530" lon="-7.5635540">
        <ele>447.6</ele>
        <time>2018-12-05T15:09:44Z</time>
      </trkpt>
      <trkpt lat="43.0132270" lon="-7.5633530">
        <ele>448.4</ele>
        <time>2018-12-05T15:09:50Z</time>
      </trkpt>
      <trkpt lat="43.0132080" lon="-7.5633170">
        <ele>448.6</ele>
        <time>2018-12-05T15:09:51Z</time>
      </trkpt>
      <trkpt lat="43.0130880" lon="-7.5631490">
        <ele>449.8</ele>
        <time>2018-12-05T15:09:56Z</time>
      </trkpt>
      <trkpt lat="43.0129290" lon="-7.5629630">
        <ele>450.8</ele>
        <time>2018-12-05T15:10:02Z</time>
      </trkpt>
      <trkpt lat="43.0128690" lon="-7.5629410">
        <ele>451.0</ele>
        <time>2018-12-05T15:10:05Z</time>
      </trkpt>
      <trkpt lat="43.0128320" lon="-7.5629190">
        <ele>451.0</ele>
        <time>2018-12-05T15:10:06Z</time>
      </trkpt>
      <trkpt lat="43.0127870" lon="-7.5629080">
        <ele>451.2</ele>
        <time>2018-12-05T15:10:08Z</time>
      </trkpt>
      <trkpt lat="43.0127410" lon="-7.5628990">
        <ele>451.2</ele>
        <time>2018-12-05T15:10:10Z</time>
      </trkpt>
      <trkpt lat="43.0124650" lon="-7.5629820">
        <ele>452.0</ele>
        <time>2018-12-05T15:10:16Z</time>
      </trkpt>
      <trkpt lat="43.0121810" lon="-7.5629230">
        <ele>452.4</ele>
        <time>2018-12-05T15:10:22Z</time>
      </trkpt>
      <trkpt lat="43.0118880" lon="-7.5628000">
        <ele>451.8</ele>
        <time>2018-12-05T15:10:28Z</time>
      </trkpt>
      <trkpt lat="43.0118090" lon="-7.5627100">
        <ele>451.4</ele>
        <time>2018-12-05T15:10:31Z</time>
      </trkpt>
      <trkpt lat="43.0118300" lon="-7.5625110">
        <ele>451.4</ele>
        <time>2018-12-05T15:10:35Z</time>
      </trkpt>
      <trkpt lat="43.0118770" lon="-7.5621830">
        <ele>452.8</ele>
        <time>2018-12-05T15:10:41Z</time>
      </trkpt>
      <trkpt lat="43.0119990" lon="-7.5619060">
        <ele>453.0</ele>
        <time>2018-12-05T15:10:47Z</time>
      </trkpt>
      <trkpt lat="43.0120350" lon="-7.5618090">
        <ele>453.0</ele>
        <time>2018-12-05T15:10:49Z</time>
      </trkpt>
      <trkpt lat="43.0121320" lon="-7.5615100">
        <ele>453.6</ele>
        <time>2018-12-05T15:10:55Z</time>
      </trkpt>
      <trkpt lat="43.0122300" lon="-7.5612300">
        <ele>454.0</ele>
        <time>2018-12-05T15:11:01Z</time>
      </trkpt>
      <trkpt lat="43.0122460" lon="-7.5611860">
        <ele>454.0</ele>
        <time>2018-12-05T15:11:02Z</time>
      </trkpt>
      <trkpt lat="43.0122810" lon="-7.5610940">
        <ele>454.2</ele>
        <time>2018-12-05T15:11:04Z</time>
      </trkpt>
      <trkpt lat="43.0123830" lon="-7.5608330">
        <ele>454.4</ele>
        <time>2018-12-05T15:11:10Z</time>
      </trkpt>
      <trkpt lat="43.0124370" lon="-7.5606380">
        <ele>454.8</ele>
        <time>2018-12-05T15:11:16Z</time>
      </trkpt>
      <trkpt lat="43.0124590" lon="-7.5605620">
        <ele>455.0</ele>
        <time>2018-12-05T15:11:18Z</time>
      </trkpt>
      <trkpt lat="43.0125500" lon="-7.5603320">
        <ele>455.8</ele>
        <time>2018-12-05T15:11:24Z</time>
      </trkpt>
      <trkpt lat="43.0125910" lon="-7.5602060">
        <ele>456.2</ele>
        <time>2018-12-05T15:11:27Z</time>
      </trkpt>
      <trkpt lat="43.0126550" lon="-7.5599120">
        <ele>456.6</ele>
        <time>2018-12-05T15:11:33Z</time>
      </trkpt>
      <trkpt lat="43.0127280" lon="-7.5596390">
        <ele>457.0</ele>
        <time>2018-12-05T15:11:39Z</time>
      </trkpt>
      <trkpt lat="43.0127430" lon="-7.5596050">
        <ele>457.2</ele>
        <time>2018-12-05T15:11:40Z</time>
      </trkpt>
      <trkpt lat="43.0128020" lon="-7.5593860">
        <ele>458.2</ele>
        <time>2018-12-05T15:11:46Z</time>
      </trkpt>
      <trkpt lat="43.0128150" lon="-7.5593430">
        <ele>458.2</ele>
        <time>2018-12-05T15:11:47Z</time>
      </trkpt>
      <trkpt lat="43.0129040" lon="-7.5591260">
        <ele>459.0</ele>
        <time>2018-12-05T15:11:53Z</time>
      </trkpt>
      <trkpt lat="43.0129450" lon="-7.5590290">
        <ele>459.4</ele>
        <time>2018-12-05T15:11:56Z</time>
      </trkpt>
      <trkpt lat="43.0129850" lon="-7.5589390">
        <ele>459.8</ele>
        <time>2018-12-05T15:11:59Z</time>
      </trkpt>
      <trkpt lat="43.0128470" lon="-7.5587860">
        <ele>460.0</ele>
        <time>2018-12-05T15:12:05Z</time>
      </trkpt>
      <trkpt lat="43.0126980" lon="-7.5587050">
        <ele>459.6</ele>
        <time>2018-12-05T15:12:11Z</time>
      </trkpt>
      <trkpt lat="43.0124790" lon="-7.5586080">
        <ele>459.0</ele>
        <time>2018-12-05T15:12:17Z</time>
      </trkpt>
      <trkpt lat="43.0123200" lon="-7.5585340">
        <ele>459.2</ele>
        <time>2018-12-05T15:12:23Z</time>
      </trkpt>
      <trkpt lat="43.0120690" lon="-7.5584760">
        <ele>459.0</ele>
        <time>2018-12-05T15:12:29Z</time>
      </trkpt>
      <trkpt lat="43.0118570" lon="-7.5584010">
        <ele>458.8</ele>
        <time>2018-12-05T15:12:35Z</time>
      </trkpt>
      <trkpt lat="43.0117520" lon="-7.5583260">
        <ele>458.2</ele>
        <time>2018-12-05T15:12:38Z</time>
      </trkpt>
      <trkpt lat="43.0115880" lon="-7.5579870">
        <ele>458.0</ele>
        <time>2018-12-05T15:12:44Z</time>
      </trkpt>
      <trkpt lat="43.0116430" lon="-7.5576630">
        <ele>459.0</ele>
        <time>2018-12-05T15:12:50Z</time>
      </trkpt>
      <trkpt lat="43.0116450" lon="-7.5574130">
        <ele>459.2</ele>
        <time>2018-12-05T15:12:55Z</time>
      </trkpt>
      <trkpt lat="43.0115510" lon="-7.5571810">
        <ele>459.6</ele>
        <time>2018-12-05T15:13:01Z</time>
      </trkpt>
      <trkpt lat="43.0116370" lon="-7.5569910">
        <ele>459.6</ele>
        <time>2018-12-05T15:13:07Z</time>
      </trkpt>
      <trkpt lat="43.0116780" lon="-7.5568750">
        <ele>460.4</ele>
        <time>2018-12-05T15:13:10Z</time>
      </trkpt>
      <trkpt lat="43.0117780" lon="-7.5566720">
        <ele>461.2</ele>
        <time>2018-12-05T15:13:16Z</time>
      </trkpt>
      <trkpt lat="43.0118020" lon="-7.5566340">
        <ele>461.4</ele>
        <time>2018-12-05T15:13:17Z</time>
      </trkpt>
      <trkpt lat="43.0118990" lon="-7.5563540">
        <ele>462.2</ele>
        <time>2018-12-05T15:13:23Z</time>
      </trkpt>
      <trkpt lat="43.0119230" lon="-7.5562930">
        <ele>462.4</ele>
        <time>2018-12-05T15:13:26Z</time>
      </trkpt>
      <trkpt lat="43.0119740" lon="-7.5562740">
        <ele>462.8</ele>
        <time>2018-12-05T15:13:32Z</time>
      </trkpt>
      <trkpt lat="43.0122580" lon="-7.5562940">
        <ele>462.8</ele>
        <time>2018-12-05T15:13:38Z</time>
      </trkpt>
      <trkpt lat="43.0122910" lon="-7.5563160">
        <ele>462.6</ele>
        <time>2018-12-05T15:13:44Z</time>
      </trkpt>
      <trkpt lat="43.0123330" lon="-7.5562750">
        <ele>462.8</ele>
        <time>2018-12-05T15:13:47Z</time>
      </trkpt>
      <trkpt lat="43.0123650" lon="-7.5561720">
        <ele>463.2</ele>
        <time>2018-12-05T15:13:53Z</time>
      </trkpt>
      <trkpt lat="43.0123730" lon="-7.5561640">
        <ele>463.2</ele>
        <time>2018-12-05T15:13:55Z</time>
      </trkpt>
      <trkpt lat="43.0118420" lon="-7.5558790">
        <ele>461.8</ele>
        <time>2018-12-05T19:35:52Z</time>
      </trkpt>
      <trkpt lat="43.0120540" lon="-7.5559620">
        <ele>461.8</ele>
        <time>2018-12-05T19:35:58Z</time>
      </trkpt>
      <trkpt lat="43.0121680" lon="-7.5557670">
        <ele>461.6</ele>
        <time>2018-12-05T19:36:04Z</time>
      </trkpt>
      <trkpt lat="43.0121940" lon="-7.5556730">
        <ele>461.4</ele>
        <time>2018-12-05T19:36:06Z</time>
      </trkpt>
      <trkpt lat="43.0122450" lon="-7.5554480">
        <ele>460.2</ele>
        <time>2018-12-05T19:36:11Z</time>
      </trkpt>
      <trkpt lat="43.0123390" lon="-7.5552880">
        <ele>459.6</ele>
        <time>2018-12-05T19:36:17Z</time>
      </trkpt>
      <trkpt lat="43.0123850" lon="-7.5552180">
        <ele>459.2</ele>
        <time>2018-12-05T19:36:21Z</time>
      </trkpt>
      <trkpt lat="43.0124250" lon="-7.5552030">
        <ele>459.0</ele>
        <time>2018-12-05T19:36:23Z</time>
      </trkpt>
      <trkpt lat="43.0124750" lon="-7.5551830">
        <ele>458.8</ele>
        <time>2018-12-05T19:36:26Z</time>
      </trkpt>
      <trkpt lat="43.0125770" lon="-7.5550760">
        <ele>458.4</ele>
        <time>2018-12-05T19:36:30Z</time>
      </trkpt>
      <trkpt lat="43.0126230" lon="-7.5549800">
        <ele>457.8</ele>
        <time>2018-12-05T19:36:32Z</time>
      </trkpt>
      <trkpt lat="43.0127380" lon="-7.5546740">
        <ele>456.8</ele>
        <time>2018-12-05T19:36:38Z</time>
      </trkpt>
      <trkpt lat="43.0127790" lon="-7.5546940">
        <ele>456.2</ele>
        <time>2018-12-05T19:36:39Z</time>
      </trkpt>
      <trkpt lat="43.0128790" lon="-7.5548030">
        <ele>455.2</ele>
        <time>2018-12-05T19:36:41Z</time>
      </trkpt>
      <trkpt lat="43.0131840" lon="-7.5552060">
        <ele>454.4</ele>
        <time>2018-12-05T19:36:47Z</time>
      </trkpt>
      <trkpt lat="43.0134700" lon="-7.5555970">
        <ele>454.6</ele>
        <time>2018-12-05T19:36:53Z</time>
      </trkpt>
      <trkpt lat="43.0136600" lon="-7.5558570">
        <ele>454.2</ele>
        <time>2018-12-05T19:36:57Z</time>
      </trkpt>
      <trkpt lat="43.0140740" lon="-7.5562990">
        <ele>455.2</ele>
        <time>2018-12-05T19:37:03Z</time>
      </trkpt>
      <trkpt lat="43.0141240" lon="-7.5563680">
        <ele>455.4</ele>
        <time>2018-12-05T19:37:04Z</time>
      </trkpt>
      <trkpt lat="43.0143850" lon="-7.5567870">
        <ele>455.8</ele>
        <time>2018-12-05T19:37:10Z</time>
      </trkpt>
      <trkpt lat="43.0144650" lon="-7.5569750">
        <ele>456.6</ele>
        <time>2018-12-05T19:37:13Z</time>
      </trkpt>
      <trkpt lat="43.0145140" lon="-7.5570780">
        <ele>457.8</ele>
        <time>2018-12-05T19:37:18Z</time>
      </trkpt>
      <trkpt lat="43.0145400" lon="-7.5571260">
        <ele>458.2</ele>
        <time>2018-12-05T19:37:55Z</time>
      </trkpt>
      <trkpt lat="43.0145600" lon="-7.5572090">
        <ele>458.0</ele>
        <time>2018-12-05T19:37:57Z</time>
      </trkpt>
      <trkpt lat="43.0146020" lon="-7.5573520">
        <ele>457.6</ele>
        <time>2018-12-05T19:38:00Z</time>
      </trkpt>
      <trkpt lat="43.0147120" lon="-7.5576950">
        <ele>457.4</ele>
        <time>2018-12-05T19:38:06Z</time>
      </trkpt>
      <trkpt lat="43.0148330" lon="-7.5580690">
        <ele>458.8</ele>
        <time>2018-12-05T19:38:12Z</time>
      </trkpt>
      <trkpt lat="43.0148920" lon="-7.5582620">
        <ele>459.2</ele>
        <time>2018-12-05T19:38:15Z</time>
      </trkpt>
      <trkpt lat="43.0149430" lon="-7.5587670">
        <ele>459.8</ele>
        <time>2018-12-05T19:38:21Z</time>
      </trkpt>
      <trkpt lat="43.0149790" lon="-7.5588180">
        <ele>460.0</ele>
        <time>2018-12-05T19:38:22Z</time>
      </trkpt>
      <trkpt lat="43.0150150" lon="-7.5588500">
        <ele>460.2</ele>
        <time>2018-12-05T19:38:23Z</time>
      </trkpt>
      <trkpt lat="43.0150950" lon="-7.5589080">
        <ele>460.8</ele>
        <time>2018-12-05T19:38:25Z</time>
      </trkpt>
      <trkpt lat="43.0151410" lon="-7.5589370">
        <ele>461.2</ele>
        <time>2018-12-05T19:38:26Z</time>
      </trkpt>
      <trkpt lat="43.0154060" lon="-7.5591250">
        <ele>462.0</ele>
        <time>2018-12-05T19:38:32Z</time>
      </trkpt>
      <trkpt lat="43.0156070" lon="-7.5592580">
        <ele>462.2</ele>
        <time>2018-12-05T19:38:37Z</time>
      </trkpt>
      <trkpt lat="43.0157310" lon="-7.5593450">
        <ele>462.6</ele>
        <time>2018-12-05T19:38:43Z</time>
      </trkpt>
      <trkpt lat="43.0159780" lon="-7.5594360">
        <ele>462.6</ele>
        <time>2018-12-05T19:38:49Z</time>
      </trkpt>
      <trkpt lat="43.0160810" lon="-7.5595200">
        <ele>462.6</ele>
        <time>2018-12-05T19:38:51Z</time>
      </trkpt>
      <trkpt lat="43.0163140" lon="-7.5596770">
        <ele>461.8</ele>
        <time>2018-12-05T19:38:56Z</time>
      </trkpt>
      <trkpt lat="43.0165040" lon="-7.5598540">
        <ele>462.0</ele>
        <time>2018-12-05T19:39:02Z</time>
      </trkpt>
      <trkpt lat="43.0165250" lon="-7.5598750">
        <ele>462.2</ele>
        <time>2018-12-05T19:39:05Z</time>
      </trkpt>
      <trkpt lat="43.0165720" lon="-7.5599630">
        <ele>462.6</ele>
        <time>2018-12-05T19:39:22Z</time>
      </trkpt>
      <trkpt lat="43.0166290" lon="-7.5600090">
        <ele>462.6</ele>
        <time>2018-12-05T19:39:24Z</time>
      </trkpt>
      <trkpt lat="43.0167570" lon="-7.5600890">
        <ele>462.2</ele>
        <time>2018-12-05T19:39:27Z</time>
      </trkpt>
      <trkpt lat="43.0168960" lon="-7.5601770">
        <ele>461.2</ele>
        <time>2018-12-05T19:39:30Z</time>
      </trkpt>
      <trkpt lat="43.0170930" lon="-7.5603410">
        <ele>462.4</ele>
        <time>2018-12-05T19:39:36Z</time>
      </trkpt>
      <trkpt lat="43.0171480" lon="-7.5603710">
        <ele>462.6</ele>
        <time>2018-12-05T19:39:41Z</time>
      </trkpt>
      <trkpt lat="43.0172010" lon="-7.5603300">
        <ele>462.6</ele>
        <time>2018-12-05T19:40:15Z</time>
      </trkpt>
      <trkpt lat="43.0172460" lon="-7.5603570">
        <ele>462.6</ele>
        <time>2018-12-05T19:40:17Z</time>
      </trkpt>
      <trkpt lat="43.0174120" lon="-7.5604930">
        <ele>462.6</ele>
        <time>2018-12-05T19:40:23Z</time>
      </trkpt>
      <trkpt lat="43.0175770" lon="-7.5606850">
        <ele>462.8</ele>
        <time>2018-12-05T19:40:29Z</time>
      </trkpt>
      <trkpt lat="43.0176220" lon="-7.5607150">
        <ele>462.8</ele>
        <time>2018-12-05T19:40:30Z</time>
      </trkpt>
      <trkpt lat="43.0176490" lon="-7.5607680">
        <ele>462.6</ele>
        <time>2018-12-05T19:40:31Z</time>
      </trkpt>
      <trkpt lat="43.0176500" lon="-7.5608250">
        <ele>462.6</ele>
        <time>2018-12-05T19:40:32Z</time>
      </trkpt>
      <trkpt lat="43.0175860" lon="-7.5609310">
        <ele>462.4</ele>
        <time>2018-12-05T19:40:34Z</time>
      </trkpt>
      <trkpt lat="43.0174470" lon="-7.5612010">
        <ele>461.8</ele>
        <time>2018-12-05T19:40:38Z</time>
      </trkpt>
      <trkpt lat="43.0173290" lon="-7.5613500">
        <ele>461.6</ele>
        <time>2018-12-05T19:40:41Z</time>
      </trkpt>
      <trkpt lat="43.0171600" lon="-7.5615400">
        <ele>461.6</ele>
        <time>2018-12-05T19:40:45Z</time>
      </trkpt>
      <trkpt lat="43.0170320" lon="-7.5617050">
        <ele>461.2</ele>
        <time>2018-12-05T19:40:49Z</time>
      </trkpt>
      <trkpt lat="43.0168780" lon="-7.5619360">
        <ele>460.2</ele>
        <time>2018-12-05T19:40:55Z</time>
      </trkpt>
      <trkpt lat="43.0167660" lon="-7.5620280">
        <ele>460.0</ele>
        <time>2018-12-05T19:41:01Z</time>
      </trkpt>
      <trkpt lat="43.0166680" lon="-7.5622000">
        <ele>459.2</ele>
        <time>2018-12-05T19:41:04Z</time>
      </trkpt>
      <trkpt lat="43.0166220" lon="-7.5622690">
        <ele>458.8</ele>
        <time>2018-12-05T19:41:05Z</time>
      </trkpt>
      <trkpt lat="43.0165760" lon="-7.5623410">
        <ele>458.2</ele>
        <time>2018-12-05T19:41:06Z</time>
      </trkpt>
      <trkpt lat="43.0164900" lon="-7.5625910">
        <ele>457.2</ele>
        <time>2018-12-05T19:41:09Z</time>
      </trkpt>
      <trkpt lat="43.0164550" lon="-7.5629200">
        <ele>455.2</ele>
        <time>2018-12-05T19:41:12Z</time>
      </trkpt>
      <trkpt lat="43.0164420" lon="-7.5630410">
        <ele>454.2</ele>
        <time>2018-12-05T19:41:13Z</time>
      </trkpt>
      <trkpt lat="43.0164160" lon="-7.5632840">
        <ele>453.0</ele>
        <time>2018-12-05T19:41:15Z</time>
      </trkpt>
      <trkpt lat="43.0163210" lon="-7.5640240">
        <ele>452.0</ele>
        <time>2018-12-05T19:41:21Z</time>
      </trkpt>
      <trkpt lat="43.0163070" lon="-7.5641500">
        <ele>451.8</ele>
        <time>2018-12-05T19:41:22Z</time>
      </trkpt>
      <trkpt lat="43.0162370" lon="-7.5648320">
        <ele>451.0</ele>
        <time>2018-12-05T19:41:28Z</time>
      </trkpt>
      <trkpt lat="43.0161920" lon="-7.5654330">
        <ele>451.8</ele>
        <time>2018-12-05T19:41:34Z</time>
      </trkpt>
      <trkpt lat="43.0161810" lon="-7.5655250">
        <ele>452.0</ele>
        <time>2018-12-05T19:41:35Z</time>
      </trkpt>
      <trkpt lat="43.0161390" lon="-7.5658620">
        <ele>452.6</ele>
        <time>2018-12-05T19:41:41Z</time>
      </trkpt>
      <trkpt lat="43.0161270" lon="-7.5659030">
        <ele>453.0</ele>
        <time>2018-12-05T19:41:44Z</time>
      </trkpt>
      <trkpt lat="43.0161280" lon="-7.5660150">
        <ele>452.8</ele>
        <time>2018-12-05T19:41:50Z</time>
      </trkpt>
      <trkpt lat="43.0161240" lon="-7.5659980">
        <ele>452.8</ele>
        <time>2018-12-05T19:41:51Z</time>
      </trkpt>
      <trkpt lat="43.0160040" lon="-7.5660030">
        <ele>452.6</ele>
        <time>2018-12-05T19:42:11Z</time>
      </trkpt>
      <trkpt lat="43.0159500" lon="-7.5663360">
        <ele>451.8</ele>
        <time>2018-12-05T19:42:17Z</time>
      </trkpt>
      <trkpt lat="43.0159270" lon="-7.5665490">
        <ele>450.8</ele>
        <time>2018-12-05T19:42:21Z</time>
      </trkpt>
      <trkpt lat="43.0159470" lon="-7.5666870">
        <ele>451.8</ele>
        <time>2018-12-05T19:42:27Z</time>
      </trkpt>
      <trkpt lat="43.0159650" lon="-7.5667350">
        <ele>451.8</ele>
        <time>2018-12-05T19:42:29Z</time>
      </trkpt>
      <trkpt lat="43.0161470" lon="-7.5668640">
        <ele>452.4</ele>
        <time>2018-12-05T19:42:35Z</time>
      </trkpt>
      <trkpt lat="43.0162370" lon="-7.5669160">
        <ele>452.8</ele>
        <time>2018-12-05T19:42:37Z</time>
      </trkpt>
      <trkpt lat="43.0164620" lon="-7.5670020">
        <ele>453.2</ele>
        <time>2018-12-05T19:42:41Z</time>
      </trkpt>
      <trkpt lat="43.0168950" lon="-7.5670340">
        <ele>453.2</ele>
        <time>2018-12-05T19:42:47Z</time>
      </trkpt>
      <trkpt lat="43.0170740" lon="-7.5670740">
        <ele>454.0</ele>
        <time>2018-12-05T19:42:50Z</time>
      </trkpt>
      <trkpt lat="43.0173260" lon="-7.5671380">
        <ele>455.0</ele>
        <time>2018-12-05T19:42:55Z</time>
      </trkpt>
      <trkpt lat="43.0173760" lon="-7.5671450">
        <ele>455.2</ele>
        <time>2018-12-05T19:42:56Z</time>
      </trkpt>
      <trkpt lat="43.0176350" lon="-7.5671340">
        <ele>456.2</ele>
        <time>2018-12-05T19:43:02Z</time>
      </trkpt>
      <trkpt lat="43.0178840" lon="-7.5672140">
        <ele>457.2</ele>
        <time>2018-12-05T19:43:08Z</time>
      </trkpt>
      <trkpt lat="43.0179240" lon="-7.5672470">
        <ele>457.4</ele>
        <time>2018-12-05T19:43:09Z</time>
      </trkpt>
      <trkpt lat="43.0181580" lon="-7.5673700">
        <ele>458.4</ele>
        <time>2018-12-05T19:43:14Z</time>
      </trkpt>
      <trkpt lat="43.0183940" lon="-7.5674360">
        <ele>459.2</ele>
        <time>2018-12-05T19:43:19Z</time>
      </trkpt>
      <trkpt lat="43.0184330" lon="-7.5674350">
        <ele>459.4</ele>
        <time>2018-12-05T19:43:20Z</time>
      </trkpt>
      <trkpt lat="43.0184620" lon="-7.5674070">
        <ele>459.4</ele>
        <time>2018-12-05T19:43:21Z</time>
      </trkpt>
      <trkpt lat="43.0185580" lon="-7.5673290">
        <ele>460.0</ele>
        <time>2018-12-05T19:43:24Z</time>
      </trkpt>
      <trkpt lat="43.0187070" lon="-7.5670620">
        <ele>460.4</ele>
        <time>2018-12-05T19:43:29Z</time>
      </trkpt>
      <trkpt lat="43.0187560" lon="-7.5670000">
        <ele>460.6</ele>
        <time>2018-12-05T19:43:30Z</time>
      </trkpt>
      <trkpt lat="43.0188890" lon="-7.5668830">
        <ele>460.8</ele>
        <time>2018-12-05T19:43:33Z</time>
      </trkpt>
      <trkpt lat="43.0189590" lon="-7.5667090">
        <ele>461.4</ele>
        <time>2018-12-05T19:43:39Z</time>
      </trkpt>
      <trkpt lat="43.0189560" lon="-7.5666630">
        <ele>461.6</ele>
        <time>2018-12-05T19:43:40Z</time>
      </trkpt>
      <trkpt lat="43.0190010" lon="-7.5665690">
        <ele>461.8</ele>
        <time>2018-12-05T19:43:43Z</time>
      </trkpt>
      <trkpt lat="43.0189840" lon="-7.5664830">
        <ele>461.8</ele>
        <time>2018-12-05T19:43:45Z</time>
      </trkpt>
      <trkpt lat="43.0192670" lon="-7.5663230">
        <ele>457.6</ele>
        <time>2018-12-05T20:32:08Z</time>
      </trkpt>
      <trkpt lat="43.0192690" lon="-7.5663140">
        <ele>457.6</ele>
        <time>2018-12-05T20:32:09Z</time>
      </trkpt>
      <trkpt lat="43.0192580" lon="-7.5662000">
        <ele>457.6</ele>
        <time>2018-12-05T20:32:27Z</time>
      </trkpt>
      <trkpt lat="43.0193300" lon="-7.5660830">
        <ele>457.6</ele>
        <time>2018-12-05T20:32:30Z</time>
      </trkpt>
      <trkpt lat="43.0193960" lon="-7.5660060">
        <ele>457.4</ele>
        <time>2018-12-05T20:32:32Z</time>
      </trkpt>
      <trkpt lat="43.0196260" lon="-7.5658220">
        <ele>457.0</ele>
        <time>2018-12-05T20:32:37Z</time>
      </trkpt>
      <trkpt lat="43.0198610" lon="-7.5656340">
        <ele>456.6</ele>
        <time>2018-12-05T20:32:42Z</time>
      </trkpt>
      <trkpt lat="43.0201620" lon="-7.5653980">
        <ele>456.0</ele>
        <time>2018-12-05T20:32:48Z</time>
      </trkpt>
      <trkpt lat="43.0202720" lon="-7.5653250">
        <ele>456.0</ele>
        <time>2018-12-05T20:32:50Z</time>
      </trkpt>
      <trkpt lat="43.0203580" lon="-7.5652220">
        <ele>456.0</ele>
        <time>2018-12-05T20:32:52Z</time>
      </trkpt>
      <trkpt lat="43.0204220" lon="-7.5651090">
        <ele>456.0</ele>
        <time>2018-12-05T20:32:54Z</time>
      </trkpt>
      <trkpt lat="43.0205100" lon="-7.5649560">
        <ele>456.2</ele>
        <time>2018-12-05T20:32:57Z</time>
      </trkpt>
      <trkpt lat="43.0205650" lon="-7.5648480">
        <ele>456.2</ele>
        <time>2018-12-05T20:32:59Z</time>
      </trkpt>
      <trkpt lat="43.0206200" lon="-7.5647310">
        <ele>456.0</ele>
        <time>2018-12-05T20:33:01Z</time>
      </trkpt>
      <trkpt lat="43.0207050" lon="-7.5644790">
        <ele>455.4</ele>
        <time>2018-12-05T20:33:05Z</time>
      </trkpt>
      <trkpt lat="43.0208210" lon="-7.5642120">
        <ele>454.6</ele>
        <time>2018-12-05T20:33:10Z</time>
      </trkpt>
      <trkpt lat="43.0208840" lon="-7.5640540">
        <ele>454.8</ele>
        <time>2018-12-05T20:33:16Z</time>
      </trkpt>
      <trkpt lat="43.0208960" lon="-7.5640060">
        <ele>455.0</ele>
        <time>2018-12-05T20:33:19Z</time>
      </trkpt>
      <trkpt lat="43.0209250" lon="-7.5638670">
        <ele>454.8</ele>
        <time>2018-12-05T20:33:29Z</time>
      </trkpt>
      <trkpt lat="43.0209410" lon="-7.5638360">
        <ele>454.8</ele>
        <time>2018-12-05T20:33:30Z</time>
      </trkpt>
      <trkpt lat="43.0209950" lon="-7.5637040">
        <ele>454.8</ele>
        <time>2018-12-05T20:33:34Z</time>
      </trkpt>
      <trkpt lat="43.0210990" lon="-7.5636760">
        <ele>454.6</ele>
        <time>2018-12-05T20:33:40Z</time>
      </trkpt>
      <trkpt lat="43.0211770" lon="-7.5637470">
        <ele>454.4</ele>
        <time>2018-12-05T20:33:42Z</time>
      </trkpt>
      <trkpt lat="43.0212160" lon="-7.5637870">
        <ele>454.4</ele>
        <time>2018-12-05T20:33:43Z</time>
      </trkpt>
      <trkpt lat="43.0212580" lon="-7.5638250">
        <ele>454.4</ele>
        <time>2018-12-05T20:33:44Z</time>
      </trkpt>
      <trkpt lat="43.0213780" lon="-7.5638660">
        <ele>454.4</ele>
        <time>2018-12-05T20:33:46Z</time>
      </trkpt>
      <trkpt lat="43.0215320" lon="-7.5639630">
        <ele>454.4</ele>
        <time>2018-12-05T20:33:49Z</time>
      </trkpt>
      <trkpt lat="43.0216610" lon="-7.5640610">
        <ele>454.2</ele>
        <time>2018-12-05T20:33:52Z</time>
      </trkpt>
      <trkpt lat="43.0218270" lon="-7.5642190">
        <ele>454.8</ele>
        <time>2018-12-05T20:33:56Z</time>
      </trkpt>
      <trkpt lat="43.0219510" lon="-7.5643050">
        <ele>455.6</ele>
        <time>2018-12-05T20:33:59Z</time>
      </trkpt>
      <trkpt lat="43.0221540" lon="-7.5644340">
        <ele>456.2</ele>
        <time>2018-12-05T20:34:05Z</time>
      </trkpt>
      <trkpt lat="43.0221800" lon="-7.5644530">
        <ele>456.6</ele>
        <time>2018-12-05T20:34:09Z</time>
      </trkpt>
      <trkpt lat="43.0222020" lon="-7.5644930">
        <ele>456.8</ele>
        <time>2018-12-05T20:34:33Z</time>
      </trkpt>
      <trkpt lat="43.0222570" lon="-7.5645370">
        <ele>456.6</ele>
        <time>2018-12-05T20:34:35Z</time>
      </trkpt>
      <trkpt lat="43.0223480" lon="-7.5645180">
        <ele>456.2</ele>
        <time>2018-12-05T20:34:37Z</time>
      </trkpt>
      <trkpt lat="43.0225900" lon="-7.5642120">
        <ele>455.6</ele>
        <time>2018-12-05T20:34:43Z</time>
      </trkpt>
      <trkpt lat="43.0227630" lon="-7.5639600">
        <ele>454.6</ele>
        <time>2018-12-05T20:34:47Z</time>
      </trkpt>
      <trkpt lat="43.0228700" lon="-7.5638380">
        <ele>453.4</ele>
        <time>2018-12-05T20:34:49Z</time>
      </trkpt>
      <trkpt lat="43.0230290" lon="-7.5636580">
        <ele>452.2</ele>
        <time>2018-12-05T20:34:52Z</time>
      </trkpt>
      <trkpt lat="43.0233320" lon="-7.5633970">
        <ele>451.2</ele>
        <time>2018-12-05T20:34:57Z</time>
      </trkpt>
      <trkpt lat="43.0234570" lon="-7.5633130">
        <ele>450.6</ele>
        <time>2018-12-05T20:34:59Z</time>
      </trkpt>
      <trkpt lat="43.0235020" lon="-7.5632520">
        <ele>450.2</ele>
        <time>2018-12-05T20:35:00Z</time>
      </trkpt>
      <trkpt lat="43.0235340" lon="-7.5631840">
        <ele>450.0</ele>
        <time>2018-12-05T20:35:01Z</time>
      </trkpt>
      <trkpt lat="43.0236040" lon="-7.5630660">
        <ele>449.6</ele>
        <time>2018-12-05T20:35:03Z</time>
      </trkpt>
      <trkpt lat="43.0237120" lon="-7.5629860">
        <ele>449.2</ele>
        <time>2018-12-05T20:35:05Z</time>
      </trkpt>
      <trkpt lat="43.0239650" lon="-7.5628690">
        <ele>448.6</ele>
        <time>2018-12-05T20:35:09Z</time>
      </trkpt>
      <trkpt lat="43.0240910" lon="-7.5628320">
        <ele>448.0</ele>
        <time>2018-12-05T20:35:11Z</time>
      </trkpt>
      <trkpt lat="43.0244530" lon="-7.5627370">
        <ele>447.4</ele>
        <time>2018-12-05T20:35:17Z</time>
      </trkpt>
      <trkpt lat="43.0248230" lon="-7.5626640">
        <ele>447.2</ele>
        <time>2018-12-05T20:35:23Z</time>
      </trkpt>
      <trkpt lat="43.0248950" lon="-7.5626570">
        <ele>447.0</ele>
        <time>2018-12-05T20:35:24Z</time>
      </trkpt>
      <trkpt lat="43.0251120" lon="-7.5626240">
        <ele>445.8</ele>
        <time>2018-12-05T20:35:27Z</time>
      </trkpt>
      <trkpt lat="43.0252730" lon="-7.5625950">
        <ele>444.4</ele>
        <time>2018-12-05T20:35:29Z</time>
      </trkpt>
      <trkpt lat="43.0254420" lon="-7.5625640">
        <ele>443.2</ele>
        <time>2018-12-05T20:35:31Z</time>
      </trkpt>
      <trkpt lat="43.0256120" lon="-7.5625330">
        <ele>442.0</ele>
        <time>2018-12-05T20:35:33Z</time>
      </trkpt>
      <trkpt lat="43.0257730" lon="-7.5625060">
        <ele>440.8</ele>
        <time>2018-12-05T20:35:35Z</time>
      </trkpt>
      <trkpt lat="43.0261990" lon="-7.5624350">
        <ele>440.8</ele>
        <time>2018-12-05T20:35:41Z</time>
      </trkpt>
      <trkpt lat="43.0263580" lon="-7.5624030">
        <ele>441.4</ele>
        <time>2018-12-05T20:35:44Z</time>
      </trkpt>
      <trkpt lat="43.0264110" lon="-7.5623320">
        <ele>442.0</ele>
        <time>2018-12-05T20:35:46Z</time>
      </trkpt>
      <trkpt lat="43.0264910" lon="-7.5622290">
        <ele>443.0</ele>
        <time>2018-12-05T20:35:52Z</time>
      </trkpt>
    </trkseg>
  </trk>
</gpx>
